sensor_id;sensor_type;location;lat;lon;timestamp;P1;durP1;ratioP1;P2;durP2;ratioP2
25249;SDS011;13201;51.148;13.738;2023-08-07T00:00:22;3.58;;;2.08;;
25249;SDS011;13201;51.148;13.738;2023-08-07T00:02:48;2.78;;;2.17;;
25249;SDS011;13201;51.148;13.738;2023-08-07T00:05:14;3.13;;;2.10;;
25249;SDS011;13201;51.148;13.738;2023-08-07T00:07:41;2.03;;;1.83;;
25249;SDS011;13201;51.148;13.738;2023-08-07T00:10:07;2.92;;;2.22;;
25249;SDS011;13201;51.148;13.738;2023-08-07T00:12:34;2.72;;;2.10;;
25249;SDS011;13201;51.148;13.738;2023-08-07T00:14:59;2.45;;;1.95;;
25249;SDS011;13201;51.148;13.738;2023-08-07T00:17:26;3.93;;;2.10;;
25249;SDS011;13201;51.148;13.738;2023-08-07T00:19:51;3.28;;;2.20;;
25249;SDS011;13201;51.148;13.738;2023-08-07T00:22:17;3.03;;;1.92;;
25249;SDS011;13201;51.148;13.738;2023-08-07T00:24:43;4.00;;;2.22;;
25249;SDS011;13201;51.148;13.738;2023-08-07T00:27:08;3.33;;;2.05;;
25249;SDS011;13201;51.148;13.738;2023-08-07T00:29:37;2.67;;;2.15;;
25249;SDS011;13201;51.148;13.738;2023-08-07T00:32:04;3.57;;;2.20;;
25249;SDS011;13201;51.148;13.738;2023-08-07T00:34:30;2.70;;;2.20;;
25249;SDS011;13201;51.148;13.738;2023-08-07T00:36:55;2.80;;;2.40;;
25249;SDS011;13201;51.148;13.738;2023-08-07T00:39:21;2.40;;;2.20;;
25249;SDS011;13201;51.148;13.738;2023-08-07T00:41:47;4.55;;;2.58;;
25249;SDS011;13201;51.148;13.738;2023-08-07T00:44:12;2.55;;;2.35;;
25249;SDS011;13201;51.148;13.738;2023-08-07T00:46:38;2.90;;;2.38;;
25249;SDS011;13201;51.148;13.738;2023-08-07T00:49:04;3.38;;;2.20;;
25249;SDS011;13201;51.148;13.738;2023-08-07T00:51:31;7.05;;;2.15;;
25249;SDS011;13201;51.148;13.738;2023-08-07T00:53:57;3.90;;;2.30;;
25249;SDS011;13201;51.148;13.738;2023-08-07T00:56:25;3.83;;;2.55;;
25249;SDS011;13201;51.148;13.738;2023-08-07T00:58:51;3.05;;;2.50;;
25249;SDS011;13201;51.148;13.738;2023-08-07T01:01:18;3.20;;;2.45;;
25249;SDS011;13201;51.148;13.738;2023-08-07T01:03:44;4.05;;;2.50;;
25249;SDS011;13201;51.148;13.738;2023-08-07T01:29:26;4.50;;;2.60;;
25249;SDS011;13201;51.148;13.738;2023-08-07T01:32:00;2.65;;;2.40;;
25249;SDS011;13201;51.148;13.738;2023-08-07T01:34:30;3.47;;;2.58;;
25249;SDS011;13201;51.148;13.738;2023-08-07T01:39:24;2.47;;;2.25;;
25249;SDS011;13201;51.148;13.738;2023-08-07T01:41:50;3.17;;;2.20;;
25249;SDS011;13201;51.148;13.738;2023-08-07T01:44:16;4.47;;;2.47;;
25249;SDS011;13201;51.148;13.738;2023-08-07T01:46:42;2.53;;;2.05;;
25249;SDS011;13201;51.148;13.738;2023-08-07T01:49:07;3.00;;;2.40;;
25249;SDS011;13201;51.148;13.738;2023-08-07T01:51:33;3.90;;;2.60;;
25249;SDS011;13201;51.148;13.738;2023-08-07T01:53:59;3.60;;;2.42;;
25249;SDS011;13201;51.148;13.738;2023-08-07T01:56:25;4.97;;;2.80;;
25249;SDS011;13201;51.148;13.738;2023-08-07T01:58:50;3.20;;;2.50;;
25249;SDS011;13201;51.148;13.738;2023-08-07T02:01:16;4.15;;;2.70;;
25249;SDS011;13201;51.148;13.738;2023-08-07T02:03:41;5.22;;;2.88;;
25249;SDS011;13201;51.148;13.738;2023-08-07T02:06:07;4.80;;;2.72;;
25249;SDS011;13201;51.148;13.738;2023-08-07T02:08:33;5.07;;;3.10;;
25249;SDS011;13201;51.148;13.738;2023-08-07T02:10:58;3.50;;;2.90;;
25249;SDS011;13201;51.148;13.738;2023-08-07T02:13:26;3.85;;;3.05;;
25249;SDS011;13201;51.148;13.738;2023-08-07T02:15:52;3.50;;;3.20;;
25249;SDS011;13201;51.148;13.738;2023-08-07T02:18:17;6.85;;;3.25;;
25249;SDS011;13201;51.148;13.738;2023-08-07T02:20:43;4.72;;;3.53;;
25249;SDS011;13201;51.148;13.738;2023-08-07T02:23:11;4.45;;;3.17;;
25249;SDS011;13201;51.148;13.738;2023-08-07T02:25:36;5.88;;;2.92;;
25249;SDS011;13201;51.148;13.738;2023-08-07T02:28:02;4.10;;;3.25;;
25249;SDS011;13201;51.148;13.738;2023-08-07T02:30:27;5.07;;;3.10;;
25249;SDS011;13201;51.148;13.738;2023-08-07T02:32:55;3.85;;;3.45;;
25249;SDS011;13201;51.148;13.738;2023-08-07T02:35:21;7.60;;;3.67;;
25249;SDS011;13201;51.148;13.738;2023-08-07T02:37:46;5.32;;;3.58;;
25249;SDS011;13201;51.148;13.738;2023-08-07T02:40:12;4.55;;;3.50;;
25249;SDS011;13201;51.148;13.738;2023-08-07T02:42:40;4.90;;;3.70;;
25249;SDS011;13201;51.148;13.738;2023-08-07T02:45:07;3.97;;;3.03;;
25249;SDS011;13201;51.148;13.738;2023-08-07T02:47:33;6.25;;;3.30;;
25249;SDS011;13201;51.148;13.738;2023-08-07T02:49:58;5.00;;;3.30;;
25249;SDS011;13201;51.148;13.738;2023-08-07T02:52:24;5.70;;;3.38;;
25249;SDS011;13201;51.148;13.738;2023-08-07T02:54:50;3.78;;;3.33;;
25249;SDS011;13201;51.148;13.738;2023-08-07T02:57:16;3.40;;;3.08;;
25249;SDS011;13201;51.148;13.738;2023-08-07T02:59:41;6.57;;;2.78;;
25249;SDS011;13201;51.148;13.738;2023-08-07T03:02:07;4.32;;;2.50;;
25249;SDS011;13201;51.148;13.738;2023-08-07T03:04:32;4.07;;;1.90;;
25249;SDS011;13201;51.148;13.738;2023-08-07T03:06:59;3.92;;;1.63;;
25249;SDS011;13201;51.148;13.738;2023-08-07T03:09:25;2.78;;;1.40;;
25249;SDS011;13201;51.148;13.738;2023-08-07T03:11:51;1.33;;;1.20;;
25249;SDS011;13201;51.148;13.738;2023-08-07T03:14:16;2.55;;;1.50;;
25249;SDS011;13201;51.148;13.738;2023-08-07T03:16:42;2.58;;;1.50;;
25249;SDS011;13201;51.148;13.738;2023-08-07T03:19:08;2.38;;;1.67;;
25249;SDS011;13201;51.148;13.738;2023-08-07T03:21:33;3.47;;;1.70;;
25249;SDS011;13201;51.148;13.738;2023-08-07T03:23:59;5.43;;;1.60;;
25249;SDS011;13201;51.148;13.738;2023-08-07T03:26:25;4.95;;;1.60;;
25249;SDS011;13201;51.148;13.738;2023-08-07T03:28:50;2.40;;;1.67;;
25249;SDS011;13201;51.148;13.738;2023-08-07T03:31:16;2.10;;;1.50;;
25249;SDS011;13201;51.148;13.738;2023-08-07T03:33:42;2.35;;;1.63;;
25249;SDS011;13201;51.148;13.738;2023-08-07T03:36:08;5.97;;;1.80;;
25249;SDS011;13201;51.148;13.738;2023-08-07T03:38:34;2.70;;;1.50;;
25249;SDS011;13201;51.148;13.738;2023-08-07T03:40:59;2.78;;;1.80;;
25249;SDS011;13201;51.148;13.738;2023-08-07T03:43:25;2.72;;;1.75;;
25249;SDS011;13201;51.148;13.738;2023-08-07T03:45:57;3.75;;;1.67;;
25249;SDS011;13201;51.148;13.738;2023-08-07T03:48:22;3.38;;;1.73;;
25249;SDS011;13201;51.148;13.738;2023-08-07T03:50:48;3.03;;;1.80;;
25249;SDS011;13201;51.148;13.738;2023-08-07T03:53:14;3.70;;;1.90;;
25249;SDS011;13201;51.148;13.738;2023-08-07T03:55:39;5.15;;;1.52;;
25249;SDS011;13201;51.148;13.738;2023-08-07T03:58:07;3.85;;;1.80;;
25249;SDS011;13201;51.148;13.738;2023-08-07T04:00:32;3.70;;;1.90;;
25249;SDS011;13201;51.148;13.738;2023-08-07T04:02:58;4.95;;;1.80;;
25249;SDS011;13201;51.148;13.738;2023-08-07T04:05:24;2.58;;;1.80;;
25249;SDS011;13201;51.148;13.738;2023-08-07T04:07:50;4.75;;;2.00;;
25249;SDS011;13201;51.148;13.738;2023-08-07T04:10:15;3.13;;;1.90;;
25249;SDS011;13201;51.148;13.738;2023-08-07T04:12:41;5.45;;;2.45;;
25249;SDS011;13201;51.148;13.738;2023-08-07T04:15:07;2.75;;;1.92;;
25249;SDS011;13201;51.148;13.738;2023-08-07T04:17:34;5.22;;;2.33;;
25249;SDS011;13201;51.148;13.738;2023-08-07T04:19:59;4.07;;;2.60;;
25249;SDS011;13201;51.148;13.738;2023-08-07T04:22:25;5.78;;;2.67;;
25249;SDS011;13201;51.148;13.738;2023-08-07T04:24:51;5.72;;;3.00;;
25249;SDS011;13201;51.148;13.738;2023-08-07T04:27:16;4.07;;;3.17;;
25249;SDS011;13201;51.148;13.738;2023-08-07T04:29:42;5.35;;;3.10;;
25249;SDS011;13201;51.148;13.738;2023-08-07T04:32:08;6.68;;;3.17;;
25249;SDS011;13201;51.148;13.738;2023-08-07T04:34:34;7.30;;;3.33;;
25249;SDS011;13201;51.148;13.738;2023-08-07T04:37:00;4.53;;;3.53;;
25249;SDS011;13201;51.148;13.738;2023-08-07T04:39:26;6.10;;;3.80;;
25249;SDS011;13201;51.148;13.738;2023-08-07T04:41:51;5.93;;;3.92;;
25249;SDS011;13201;51.148;13.738;2023-08-07T04:44:17;6.18;;;3.63;;
25249;SDS011;13201;51.148;13.738;2023-08-07T04:46:43;5.35;;;4.18;;
25249;SDS011;13201;51.148;13.738;2023-08-07T04:49:08;6.15;;;4.47;;
25249;SDS011;13201;51.148;13.738;2023-08-07T04:51:34;5.65;;;3.97;;
25249;SDS011;13201;51.148;13.738;2023-08-07T04:54:00;5.85;;;4.00;;
25249;SDS011;13201;51.148;13.738;2023-08-07T04:56:25;6.75;;;4.43;;
25249;SDS011;13201;51.148;13.738;2023-08-07T04:58:51;6.18;;;4.30;;
25249;SDS011;13201;51.148;13.738;2023-08-07T05:01:17;6.65;;;4.10;;
25249;SDS011;13201;51.148;13.738;2023-08-07T05:03:43;12.33;;;4.43;;
25249;SDS011;13201;51.148;13.738;2023-08-07T05:06:09;7.68;;;4.40;;
25249;SDS011;13201;51.148;13.738;2023-08-07T05:08:34;5.57;;;4.13;;
25249;SDS011;13201;51.148;13.738;2023-08-07T05:11:00;7.10;;;4.43;;
25249;SDS011;13201;51.148;13.738;2023-08-07T05:13:26;9.98;;;4.72;;
25249;SDS011;13201;51.148;13.738;2023-08-07T05:15:51;6.70;;;4.53;;
25249;SDS011;13201;51.148;13.738;2023-08-07T05:18:17;9.70;;;4.80;;
25249;SDS011;13201;51.148;13.738;2023-08-07T05:20:43;8.30;;;4.72;;
25249;SDS011;13201;51.148;13.738;2023-08-07T05:23:09;8.30;;;4.88;;
25249;SDS011;13201;51.148;13.738;2023-08-07T05:25:35;9.10;;;4.80;;
25249;SDS011;13201;51.148;13.738;2023-08-07T05:28:02;6.13;;;4.40;;
25249;SDS011;13201;51.148;13.738;2023-08-07T05:30:28;6.10;;;4.55;;
25249;SDS011;13201;51.148;13.738;2023-08-07T05:32:53;6.50;;;4.10;;
25249;SDS011;13201;51.148;13.738;2023-08-07T05:35:19;7.65;;;4.25;;
25249;SDS011;13201;51.148;13.738;2023-08-07T05:37:45;8.15;;;4.63;;
25249;SDS011;13201;51.148;13.738;2023-08-07T05:40:11;9.70;;;4.20;;
25249;SDS011;13201;51.148;13.738;2023-08-07T05:42:37;8.23;;;4.25;;
25249;SDS011;13201;51.148;13.738;2023-08-07T05:45:03;8.52;;;4.32;;
25249;SDS011;13201;51.148;13.738;2023-08-07T05:47:29;4.53;;;3.67;;
25249;SDS011;13201;51.148;13.738;2023-08-07T05:49:54;6.65;;;4.63;;
25249;SDS011;13201;51.148;13.738;2023-08-07T05:52:20;6.07;;;3.50;;
25249;SDS011;13201;51.148;13.738;2023-08-07T05:54:46;8.48;;;3.70;;
25249;SDS011;13201;51.148;13.738;2023-08-07T05:57:12;8.25;;;4.07;;
25249;SDS011;13201;51.148;13.738;2023-08-07T05:59:38;7.60;;;3.75;;
25249;SDS011;13201;51.148;13.738;2023-08-07T06:02:05;5.55;;;3.78;;
25249;SDS011;13201;51.148;13.738;2023-08-07T06:04:31;4.67;;;3.40;;
25249;SDS011;13201;51.148;13.738;2023-08-07T06:06:57;5.07;;;3.28;;
25249;SDS011;13201;51.148;13.738;2023-08-07T06:09:22;6.05;;;3.25;;
25249;SDS011;13201;51.148;13.738;2023-08-07T06:11:48;3.92;;;3.25;;
25249;SDS011;13201;51.148;13.738;2023-08-07T06:14:14;10.80;;;3.72;;
25249;SDS011;13201;51.148;13.738;2023-08-07T06:16:40;6.72;;;3.88;;
25249;SDS011;13201;51.148;13.738;2023-08-07T06:19:05;4.90;;;3.00;;
25249;SDS011;13201;51.148;13.738;2023-08-07T06:21:31;4.72;;;3.30;;
25249;SDS011;13201;51.148;13.738;2023-08-07T06:23:57;3.40;;;2.65;;
25249;SDS011;13201;51.148;13.738;2023-08-07T06:26:23;5.15;;;3.00;;
25249;SDS011;13201;51.148;13.738;2023-08-07T06:28:48;4.97;;;2.90;;
25249;SDS011;13201;51.148;13.738;2023-08-07T06:31:15;4.55;;;2.75;;
25249;SDS011;13201;51.148;13.738;2023-08-07T06:33:41;4.93;;;3.10;;
25249;SDS011;13201;51.148;13.738;2023-08-07T06:36:07;3.83;;;3.00;;
25249;SDS011;13201;51.148;13.738;2023-08-07T06:38:35;3.67;;;2.55;;
25249;SDS011;13201;51.148;13.738;2023-08-07T06:41:01;4.95;;;2.50;;
25249;SDS011;13201;51.148;13.738;2023-08-07T06:43:27;5.03;;;2.70;;
25249;SDS011;13201;51.148;13.738;2023-08-07T06:45:56;3.72;;;2.58;;
25249;SDS011;13201;51.148;13.738;2023-08-07T06:48:22;3.15;;;2.78;;
25249;SDS011;13201;51.148;13.738;2023-08-07T06:50:48;3.77;;;2.80;;
25249;SDS011;13201;51.148;13.738;2023-08-07T06:53:14;3.40;;;2.80;;
25249;SDS011;13201;51.148;13.738;2023-08-07T06:55:43;3.58;;;2.60;;
25249;SDS011;13201;51.148;13.738;2023-08-07T06:58:10;3.88;;;2.42;;
25249;SDS011;13201;51.148;13.738;2023-08-07T07:00:36;3.67;;;2.55;;
25249;SDS011;13201;51.148;13.738;2023-08-07T07:03:02;2.83;;;2.40;;
25249;SDS011;13201;51.148;13.738;2023-08-07T07:05:28;6.90;;;3.05;;
25249;SDS011;13201;51.148;13.738;2023-08-07T07:07:55;3.03;;;2.13;;
25249;SDS011;13201;51.148;13.738;2023-08-07T07:10:22;3.83;;;2.40;;
25249;SDS011;13201;51.148;13.738;2023-08-07T07:12:47;2.58;;;2.30;;
25249;SDS011;13201;51.148;13.738;2023-08-07T07:15:13;6.90;;;2.40;;
25249;SDS011;13201;51.148;13.738;2023-08-07T07:17:39;4.28;;;2.10;;
25249;SDS011;13201;51.148;13.738;2023-08-07T07:20:05;4.07;;;2.05;;
25249;SDS011;13201;51.148;13.738;2023-08-07T07:22:31;2.47;;;1.80;;
25249;SDS011;13201;51.148;13.738;2023-08-07T07:24:56;3.20;;;2.00;;
25249;SDS011;13201;51.148;13.738;2023-08-07T07:27:22;3.30;;;2.20;;
25249;SDS011;13201;51.148;13.738;2023-08-07T07:29:50;4.60;;;2.20;;
25249;SDS011;13201;51.148;13.738;2023-08-07T07:32:16;4.85;;;2.00;;
25249;SDS011;13201;51.148;13.738;2023-08-07T07:34:41;5.22;;;2.22;;
25249;SDS011;13201;51.148;13.738;2023-08-07T07:37:07;2.28;;;2.00;;
25249;SDS011;13201;51.148;13.738;2023-08-07T07:39:34;3.42;;;2.25;;
25249;SDS011;13201;51.148;13.738;2023-08-07T07:41:59;6.45;;;2.22;;
25249;SDS011;13201;51.148;13.738;2023-08-07T07:44:25;5.13;;;2.20;;
25249;SDS011;13201;51.148;13.738;2023-08-07T07:46:51;3.50;;;2.30;;
25249;SDS011;13201;51.148;13.738;2023-08-07T07:49:16;2.00;;;1.67;;
25249;SDS011;13201;51.148;13.738;2023-08-07T07:51:42;3.20;;;2.10;;
25249;SDS011;13201;51.148;13.738;2023-08-07T07:56:35;3.27;;;1.43;;
25249;SDS011;13201;51.148;13.738;2023-08-07T07:59:01;2.00;;;1.38;;
25249;SDS011;13201;51.148;13.738;2023-08-07T08:01:27;2.25;;;1.60;;
25249;SDS011;13201;51.148;13.738;2023-08-07T08:03:53;5.47;;;1.90;;
25249;SDS011;13201;51.148;13.738;2023-08-07T08:06:19;1.90;;;1.27;;
25249;SDS011;13201;51.148;13.738;2023-08-07T08:08:45;2.17;;;1.42;;
25249;SDS011;13201;51.148;13.738;2023-08-07T08:11:10;3.47;;;1.50;;
25249;SDS011;13201;51.148;13.738;2023-08-07T08:13:36;3.70;;;1.35;;
25249;SDS011;13201;51.148;13.738;2023-08-07T08:16:04;3.28;;;1.40;;
25249;SDS011;13201;51.148;13.738;2023-08-07T08:18:30;3.30;;;1.25;;
25249;SDS011;13201;51.148;13.738;2023-08-07T08:20:56;3.17;;;1.35;;
25249;SDS011;13201;51.148;13.738;2023-08-07T08:23:21;2.15;;;1.30;;
25249;SDS011;13201;51.148;13.738;2023-08-07T08:25:47;4.57;;;1.30;;
25249;SDS011;13201;51.148;13.738;2023-08-07T08:28:14;3.25;;;1.30;;
25249;SDS011;13201;51.148;13.738;2023-08-07T08:30:40;1.63;;;1.10;;
25249;SDS011;13201;51.148;13.738;2023-08-07T08:33:06;2.75;;;1.60;;
25249;SDS011;13201;51.148;13.738;2023-08-07T08:35:34;1.90;;;1.40;;
25249;SDS011;13201;51.148;13.738;2023-08-07T08:38:00;2.38;;;1.50;;
25249;SDS011;13201;51.148;13.738;2023-08-07T08:40:28;2.58;;;1.25;;
25249;SDS011;13201;51.148;13.738;2023-08-07T08:42:54;3.20;;;1.40;;
25249;SDS011;13201;51.148;13.738;2023-08-07T08:45:23;3.25;;;1.83;;
25249;SDS011;13201;51.148;13.738;2023-08-07T08:47:51;1.92;;;1.40;;
25249;SDS011;13201;51.148;13.738;2023-08-07T08:50:19;4.68;;;1.38;;
25249;SDS011;13201;51.148;13.738;2023-08-07T08:52:46;4.50;;;1.25;;
25249;SDS011;13201;51.148;13.738;2023-08-07T08:55:12;1.60;;;1.25;;
25249;SDS011;13201;51.148;13.738;2023-08-07T08:57:39;2.63;;;1.20;;
25249;SDS011;13201;51.148;13.738;2023-08-07T09:00:08;1.27;;;1.00;;
25249;SDS011;13201;51.148;13.738;2023-08-07T09:02:46;2.95;;;1.08;;
25249;SDS011;13201;51.148;13.738;2023-08-07T09:05:16;4.03;;;1.10;;
25249;SDS011;13201;51.148;13.738;2023-08-07T09:07:43;1.20;;;1.00;;
25249;SDS011;13201;51.148;13.738;2023-08-07T09:10:11;2.42;;;1.30;;
25249;SDS011;13201;51.148;13.738;2023-08-07T09:12:42;1.08;;;0.95;;
25249;SDS011;13201;51.148;13.738;2023-08-07T09:15:15;2.03;;;1.08;;
25249;SDS011;13201;51.148;13.738;2023-08-07T09:17:42;1.52;;;0.95;;
25249;SDS011;13201;51.148;13.738;2023-08-07T09:20:10;1.45;;;1.00;;
25249;SDS011;13201;51.148;13.738;2023-08-07T09:22:39;3.20;;;1.00;;
25249;SDS011;13201;51.148;13.738;2023-08-07T09:25:05;1.85;;;1.05;;
25249;SDS011;13201;51.148;13.738;2023-08-07T09:27:31;1.00;;;0.90;;
25249;SDS011;13201;51.148;13.738;2023-08-07T09:29:58;1.48;;;1.00;;
25249;SDS011;13201;51.148;13.738;2023-08-07T09:32:24;1.20;;;0.93;;
25249;SDS011;13201;51.148;13.738;2023-08-07T09:34:50;1.80;;;0.85;;
25249;SDS011;13201;51.148;13.738;2023-08-07T09:37:19;1.23;;;0.82;;
25249;SDS011;13201;51.148;13.738;2023-08-07T09:39:44;2.65;;;1.00;;
25249;SDS011;13201;51.148;13.738;2023-08-07T09:42:14;1.40;;;1.10;;
25249;SDS011;13201;51.148;13.738;2023-08-07T09:44:41;3.10;;;1.30;;
25249;SDS011;13201;51.148;13.738;2023-08-07T09:47:11;1.42;;;1.00;;
25249;SDS011;13201;51.148;13.738;2023-08-07T09:49:37;1.02;;;0.88;;
25249;SDS011;13201;51.148;13.738;2023-08-07T09:52:05;2.10;;;1.13;;
25249;SDS011;13201;51.148;13.738;2023-08-07T09:54:32;1.38;;;1.20;;
25249;SDS011;13201;51.148;13.738;2023-08-07T09:56:59;1.23;;;1.00;;
25249;SDS011;13201;51.148;13.738;2023-08-07T09:59:27;1.00;;;0.90;;
25249;SDS011;13201;51.148;13.738;2023-08-07T10:01:53;1.00;;;0.70;;
25249;SDS011;13201;51.148;13.738;2023-08-07T10:06:46;1.27;;;0.80;;
25249;SDS011;13201;51.148;13.738;2023-08-07T10:09:12;1.67;;;1.00;;
25249;SDS011;13201;51.148;13.738;2023-08-07T10:11:38;1.17;;;0.95;;
25249;SDS011;13201;51.148;13.738;2023-08-07T10:14:06;1.77;;;1.13;;
25249;SDS011;13201;51.148;13.738;2023-08-07T10:16:34;1.95;;;1.00;;
25249;SDS011;13201;51.148;13.738;2023-08-07T10:19:05;1.85;;;0.80;;
25249;SDS011;13201;51.148;13.738;2023-08-07T10:21:31;1.88;;;0.93;;
25249;SDS011;13201;51.148;13.738;2023-08-07T10:24:00;1.60;;;0.95;;
25249;SDS011;13201;51.148;13.738;2023-08-07T10:26:29;1.58;;;0.70;;
25249;SDS011;13201;51.148;13.738;2023-08-07T10:28:57;2.97;;;1.00;;
25249;SDS011;13201;51.148;13.738;2023-08-07T10:31:25;2.03;;;0.90;;
25249;SDS011;13201;51.148;13.738;2023-08-07T10:33:52;1.95;;;0.73;;
25249;SDS011;13201;51.148;13.738;2023-08-07T10:36:18;0.95;;;0.80;;
25249;SDS011;13201;51.148;13.738;2023-08-07T10:38:44;1.40;;;0.77;;
25249;SDS011;13201;51.148;13.738;2023-08-07T10:41:14;1.85;;;0.80;;
25249;SDS011;13201;51.148;13.738;2023-08-07T10:43:43;1.60;;;0.80;;
25249;SDS011;13201;51.148;13.738;2023-08-07T10:46:17;0.60;;;0.55;;
25249;SDS011;13201;51.148;13.738;2023-08-07T10:48:46;1.42;;;0.80;;
25249;SDS011;13201;51.148;13.738;2023-08-07T10:53:40;2.30;;;0.68;;
25249;SDS011;13201;51.148;13.738;2023-08-07T10:56:15;0.70;;;0.70;;
25249;SDS011;13201;51.148;13.738;2023-08-07T10:58:42;1.10;;;0.70;;
25249;SDS011;13201;51.148;13.738;2023-08-07T11:03:54;2.22;;;0.85;;
25249;SDS011;13201;51.148;13.738;2023-08-07T11:06:22;0.88;;;0.70;;
25249;SDS011;13201;51.148;13.738;2023-08-07T11:08:58;1.35;;;0.93;;
25249;SDS011;13201;51.148;13.738;2023-08-07T11:11:26;1.02;;;0.73;;
25249;SDS011;13201;51.148;13.738;2023-08-07T11:13:52;4.18;;;1.10;;
25249;SDS011;13201;51.148;13.738;2023-08-07T11:16:18;0.85;;;0.82;;
25249;SDS011;13201;51.148;13.738;2023-08-07T11:18:47;1.33;;;0.80;;
25249;SDS011;13201;51.148;13.738;2023-08-07T11:21:14;1.20;;;0.80;;
25249;SDS011;13201;51.148;13.738;2023-08-07T11:23:40;1.80;;;1.20;;
25249;SDS011;13201;51.148;13.738;2023-08-07T11:26:06;4.72;;;1.10;;
25249;SDS011;13201;51.148;13.738;2023-08-07T11:28:33;1.88;;;0.85;;
25249;SDS011;13201;51.148;13.738;2023-08-07T11:30:58;1.45;;;1.00;;
25249;SDS011;13201;51.148;13.738;2023-08-07T11:33:25;1.45;;;0.80;;
25249;SDS011;13201;51.148;13.738;2023-08-07T11:35:53;1.35;;;0.93;;
25249;SDS011;13201;51.148;13.738;2023-08-07T11:38:32;1.13;;;0.77;;
25249;SDS011;13201;51.148;13.738;2023-08-07T11:41:00;3.35;;;0.93;;
25249;SDS011;13201;51.148;13.738;2023-08-07T11:43:27;2.22;;;1.10;;
25249;SDS011;13201;51.148;13.738;2023-08-07T11:45:55;1.00;;;0.82;;
25249;SDS011;13201;51.148;13.738;2023-08-07T11:50:54;1.45;;;0.85;;
25249;SDS011;13201;51.148;13.738;2023-08-07T11:53:21;2.25;;;1.20;;
25249;SDS011;13201;51.148;13.738;2023-08-07T11:56:08;2.07;;;0.77;;
25249;SDS011;13201;51.148;13.738;2023-08-07T11:58:42;2.20;;;0.90;;
25249;SDS011;13201;51.148;13.738;2023-08-07T12:01:13;2.65;;;0.98;;
25249;SDS011;13201;51.148;13.738;2023-08-07T12:03:41;3.08;;;0.88;;
25249;SDS011;13201;51.148;13.738;2023-08-07T12:06:27;2.38;;;1.10;;
25249;SDS011;13201;51.148;13.738;2023-08-07T12:08:54;3.40;;;0.90;;
25249;SDS011;13201;51.148;13.738;2023-08-07T12:11:21;1.95;;;1.00;;
25249;SDS011;13201;51.148;13.738;2023-08-07T12:13:47;1.48;;;0.85;;
25249;SDS011;13201;51.148;13.738;2023-08-07T12:16:13;0.90;;;0.77;;
25249;SDS011;13201;51.148;13.738;2023-08-07T12:18:43;1.08;;;0.90;;
25249;SDS011;13201;51.148;13.738;2023-08-07T12:21:10;0.95;;;0.88;;
25249;SDS011;13201;51.148;13.738;2023-08-07T12:23:38;2.55;;;1.10;;
25249;SDS011;13201;51.148;13.738;2023-08-07T12:26:04;1.40;;;0.80;;
25249;SDS011;13201;51.148;13.738;2023-08-07T12:28:36;1.35;;;0.90;;
25249;SDS011;13201;51.148;13.738;2023-08-07T12:31:02;1.65;;;0.90;;
25249;SDS011;13201;51.148;13.738;2023-08-07T12:33:28;1.33;;;0.80;;
25249;SDS011;13201;51.148;13.738;2023-08-07T12:35:54;1.33;;;1.17;;
25249;SDS011;13201;51.148;13.738;2023-08-07T12:38:20;3.50;;;0.77;;
25249;SDS011;13201;51.148;13.738;2023-08-07T12:40:45;0.85;;;0.60;;
25249;SDS011;13201;51.148;13.738;2023-08-07T12:43:11;0.98;;;0.70;;
25249;SDS011;13201;51.148;13.738;2023-08-07T12:45:37;0.77;;;0.65;;
25249;SDS011;13201;51.148;13.738;2023-08-07T12:48:03;0.63;;;0.57;;
25249;SDS011;13201;51.148;13.738;2023-08-07T12:50:29;1.30;;;0.60;;
25249;SDS011;13201;51.148;13.738;2023-08-07T12:52:55;0.80;;;0.75;;
25249;SDS011;13201;51.148;13.738;2023-08-07T12:55:21;1.98;;;0.88;;
25249;SDS011;13201;51.148;13.738;2023-08-07T12:57:46;1.35;;;0.80;;
25249;SDS011;13201;51.148;13.738;2023-08-07T13:00:14;1.00;;;0.70;;
25249;SDS011;13201;51.148;13.738;2023-08-07T13:02:44;3.10;;;0.70;;
25249;SDS011;13201;51.148;13.738;2023-08-07T13:05:11;0.60;;;0.60;;
25249;SDS011;13201;51.148;13.738;2023-08-07T13:07:41;0.55;;;0.55;;
25249;SDS011;13201;51.148;13.738;2023-08-07T13:10:07;3.03;;;0.70;;
25249;SDS011;13201;51.148;13.738;2023-08-07T13:12:36;0.50;;;0.47;;
25249;SDS011;13201;51.148;13.738;2023-08-07T13:15:03;0.73;;;0.60;;
25249;SDS011;13201;51.148;13.738;2023-08-07T13:19:56;0.50;;;0.50;;
25249;SDS011;13201;51.148;13.738;2023-08-07T13:22:23;1.00;;;0.70;;
25249;SDS011;13201;51.148;13.738;2023-08-07T13:24:48;1.27;;;0.75;;
25249;SDS011;13201;51.148;13.738;2023-08-07T13:27:14;0.60;;;0.50;;
25249;SDS011;13201;51.148;13.738;2023-08-07T13:29:39;0.50;;;0.50;;
25249;SDS011;13201;51.148;13.738;2023-08-07T13:32:05;0.82;;;0.60;;
25249;SDS011;13201;51.148;13.738;2023-08-07T13:34:37;0.65;;;0.55;;
25249;SDS011;13201;51.148;13.738;2023-08-07T13:37:06;1.15;;;0.60;;
25249;SDS011;13201;51.148;13.738;2023-08-07T13:39:34;2.88;;;0.55;;
25249;SDS011;13201;51.148;13.738;2023-08-07T13:42:00;8.55;;;0.73;;
25249;SDS011;13201;51.148;13.738;2023-08-07T13:44:26;2.53;;;0.73;;
25249;SDS011;13201;51.148;13.738;2023-08-07T13:46:51;3.63;;;1.77;;
25249;SDS011;13201;51.148;13.738;2023-08-07T13:49:17;1.45;;;0.70;;
25249;SDS011;13201;51.148;13.738;2023-08-07T13:51:43;1.27;;;0.50;;
25249;SDS011;13201;51.148;13.738;2023-08-07T13:54:09;2.30;;;0.60;;
25249;SDS011;13201;51.148;13.738;2023-08-07T13:56:35;1.35;;;0.77;;
25249;SDS011;13201;51.148;13.738;2023-08-07T13:59:00;4.38;;;0.80;;
25249;SDS011;13201;51.148;13.738;2023-08-07T14:01:26;1.48;;;0.57;;
25249;SDS011;13201;51.148;13.738;2023-08-07T14:03:53;2.53;;;0.60;;
25249;SDS011;13201;51.148;13.738;2023-08-07T14:06:19;2.72;;;0.70;;
25249;SDS011;13201;51.148;13.738;2023-08-07T14:08:45;2.22;;;0.60;;
25249;SDS011;13201;51.148;13.738;2023-08-07T14:11:11;3.47;;;0.60;;
25249;SDS011;13201;51.148;13.738;2023-08-07T14:13:39;1.25;;;0.50;;
25249;SDS011;13201;51.148;13.738;2023-08-07T14:16:05;1.20;;;0.70;;
25249;SDS011;13201;51.148;13.738;2023-08-07T14:18:31;3.07;;;0.80;;
25249;SDS011;13201;51.148;13.738;2023-08-07T14:20:57;0.63;;;0.63;;
25249;SDS011;13201;51.148;13.738;2023-08-07T14:23:23;2.25;;;0.43;;
25249;SDS011;13201;51.148;13.738;2023-08-07T14:25:48;0.70;;;0.50;;
25249;SDS011;13201;51.148;13.738;2023-08-07T14:30:41;1.60;;;0.50;;
25249;SDS011;13201;51.148;13.738;2023-08-07T14:33:07;1.85;;;0.60;;
25249;SDS011;13201;51.148;13.738;2023-08-07T14:35:33;1.45;;;0.57;;
25249;SDS011;13201;51.148;13.738;2023-08-07T14:37:58;2.30;;;0.70;;
25249;SDS011;13201;51.148;13.738;2023-08-07T14:40:24;3.13;;;0.70;;
25249;SDS011;13201;51.148;13.738;2023-08-07T14:42:51;2.38;;;0.60;;
25249;SDS011;13201;51.148;13.738;2023-08-07T14:45:17;2.55;;;0.60;;
25249;SDS011;13201;51.148;13.738;2023-08-07T14:47:43;2.07;;;0.60;;
25249;SDS011;13201;51.148;13.738;2023-08-07T14:50:08;2.85;;;0.60;;
25249;SDS011;13201;51.148;13.738;2023-08-07T14:52:35;1.98;;;0.70;;
25249;SDS011;13201;51.148;13.738;2023-08-07T14:55:02;0.73;;;0.50;;
25249;SDS011;13201;51.148;13.738;2023-08-07T14:57:28;1.10;;;0.50;;
25249;SDS011;13201;51.148;13.738;2023-08-07T14:59:54;2.22;;;0.50;;
25249;SDS011;13201;51.148;13.738;2023-08-07T15:02:19;1.10;;;0.55;;
25249;SDS011;13201;51.148;13.738;2023-08-07T15:04:45;0.55;;;0.52;;
25249;SDS011;13201;51.148;13.738;2023-08-07T15:07:11;2.58;;;0.63;;
25249;SDS011;13201;51.148;13.738;2023-08-07T15:09:37;1.53;;;0.50;;
25249;SDS011;13201;51.148;13.738;2023-08-07T15:12:02;0.98;;;0.47;;